Accueil
METAR-TAF:

METAR-TAF

Aéroports :

La Paz, Mexique

latitude: 24-04N, longitude: 110-22W, altitude: 21 m

Observation

Le bulletin a été fait il y a 5 heures et 13 minutes, à 05:40 UTC
Vent 10 kt de sud
Température 27°C
Humidité 51%
Pression 1014 hPa
Visibilité: 16.1 km
Ciel clair

METAR: MMLP 220540Z 18010KT 10SM SKC 27/16 A2995 RMK SLP141 52020 906 ISOL CI

Heure: 04:53 (10:53 UTC)

Prévision

Le bulletin a été fait il y a 6 heures et 53 minutes, à 04:00 UTC
Prévision valable du 22 à 06 UTC au 23 à 06 UTC
Vent 5 kt de sud
Visibilité: 10 km
Ciel clair
A partir de 22 à 1600 UTC
Vent 10 kt de nord
Visibilité: 10 km
Ciel clair
A partir de 23 à 0300 UTC
Vent 5 kt de sud
Visibilité: 10 km
Ciel clair

TAF: MMLP 220400Z 2206/2306 18005KT P6SM SKC FM221600 36010KT P6SM SKC FM230300 18005KT P6SM SKC

Observations et prévisions météorologiques de plus de 4000 aéroports (messages METAR et TAF).

Les stations disponibles sont représentées par des disques jaunes et rouges sur la carte.

Passer la souris dessus pour voir le nom de la station.

Cliquer dessus pour voir les observations et prévisions météorologiques.

Pour changer de carte: cliquez sur les boutons verts avec une croix noire pour zoomer, sur le bouton vert avec un tiret pour effectuer un zoom arrière, ou sur les flèches vertes pour les cartes adjacentes.


METAR-TAF: